createdAt,value
2022-11-06T00:01:49.292Z,21.00
2022-11-06T00:04:17.376Z,20.08
2022-11-06T00:06:47.853Z,21.30
2022-11-06T00:09:17.513Z,18.27
2022-11-06T00:11:45.233Z,19.88
2022-11-06T00:14:13.257Z,21.90
2022-11-06T00:16:41.544Z,20.27
2022-11-06T00:19:10.019Z,20.33
2022-11-06T00:21:37.629Z,21.88
2022-11-06T00:24:07.666Z,19.95
2022-11-06T00:26:35.487Z,20.13
2022-11-06T00:29:04.265Z,18.58
2022-11-06T00:31:32.976Z,20.02
2022-11-06T00:34:01.324Z,19.42
2022-11-06T00:36:33.162Z,20.55
2022-11-06T00:39:01.162Z,17.85
2022-11-06T00:41:29.369Z,21.40
2022-11-06T00:43:58.897Z,22.98
2022-11-06T00:46:26.893Z,21.63
2022-11-06T00:48:55.392Z,19.52
2022-11-06T00:51:24.545Z,19.23
2022-11-06T00:53:56.424Z,22.13
2022-11-06T00:56:24.337Z,21.23
2022-11-06T00:58:52.463Z,19.63
2022-11-06T01:01:24.065Z,21.23
2022-11-06T01:06:21.099Z,20.83
2022-11-06T01:08:49.442Z,21.20
2022-11-06T01:11:21.598Z,20.05
2022-11-06T01:13:51.048Z,22.25
2022-11-06T01:16:19.296Z,21.40
2022-11-06T01:18:47.526Z,24.85
2022-11-06T01:21:16.606Z,23.45
2022-11-06T01:23:44.901Z,21.25
2022-11-06T01:26:13.274Z,23.40
2022-11-06T01:28:42.126Z,20.85
2022-11-06T01:31:14.389Z,22.23
2022-11-06T01:33:42.762Z,21.33
2022-11-06T01:36:14.310Z,22.13
2022-11-06T01:41:09.834Z,24.00
2022-11-06T01:43:43.925Z,28.50
2022-11-06T01:46:11.819Z,25.00
2022-11-06T01:48:40.799Z,21.55
2022-11-06T01:51:08.888Z,21.05
2022-11-06T01:53:37.748Z,21.73
2022-11-06T01:56:06.944Z,22.90
2022-11-06T01:58:35.818Z,24.00
2022-11-06T02:01:03.950Z,20.85
2022-11-06T02:03:31.896Z,20.67
2022-11-06T02:06:00.034Z,28.17
2022-11-06T02:08:27.876Z,24.52
2022-11-06T02:10:55.698Z,23.08
2022-11-06T02:13:23.928Z,21.27
2022-11-06T02:15:59.478Z,20.05
2022-11-06T02:18:33.682Z,21.30
2022-11-06T02:21:19.621Z,21.73
2022-11-06T02:24:06.154Z,21.90
2022-11-06T02:27:12.327Z,20.50
2022-11-06T02:29:46.595Z,20.67
2022-11-06T02:32:17.806Z,21.05
2022-11-06T02:34:48.176Z,20.85
2022-11-06T02:37:17.538Z,22.55
2022-11-06T02:39:47.019Z,32.63
2022-11-06T02:42:16.121Z,26.90
2022-11-06T02:44:44.461Z,23.23
2022-11-06T02:47:14.233Z,23.52
2022-11-06T02:49:42.100Z,22.85
2022-11-06T02:52:14.680Z,24.45
2022-11-06T02:57:30.602Z,21.27
2022-11-06T03:00:08.121Z,23.00
2022-11-06T03:02:56.445Z,22.40
2022-11-06T03:05:29.984Z,23.88
2022-11-06T03:08:07.509Z,23.27
2022-11-06T03:10:41.195Z,19.83
2022-11-06T03:13:15.586Z,23.88
2022-11-06T03:15:45.963Z,25.38
2022-11-06T03:18:14.882Z,27.38
2022-11-06T03:21:02.279Z,29.30
2022-11-06T03:23:34.690Z,29.70
2022-11-06T03:26:11.747Z,28.42
2022-11-06T03:28:41.024Z,28.30
2022-11-06T03:31:15.569Z,22.58
2022-11-06T03:33:50.196Z,22.02
2022-11-06T03:36:24.011Z,22.10
2022-11-06T03:39:01.421Z,20.70
2022-11-06T03:41:42.121Z,20.63
2022-11-06T03:44:11.247Z,22.30
2022-11-06T03:46:41.885Z,22.85
2022-11-06T03:49:13.742Z,25.45
2022-11-06T03:51:49.078Z,24.58
2022-11-06T03:54:19.619Z,24.42
2022-11-06T03:56:53.306Z,22.83
2022-11-06T03:59:25.272Z,23.50
2022-11-06T04:01:55.680Z,23.55
2022-11-06T04:04:42.491Z,25.02
2022-11-06T04:07:11.772Z,26.17
2022-11-06T04:10:00.177Z,26.08
2022-11-06T04:13:04.031Z,25.85
2022-11-06T04:15:33.173Z,24.23
2022-11-06T04:18:00.971Z,26.63
2022-11-06T04:20:51.439Z,24.58
2022-11-06T04:23:37.651Z,26.67
2022-11-06T04:26:38.032Z,27.70
2022-11-06T04:29:44.622Z,26.58
2022-11-06T04:32:15.152Z,29.77
2022-11-06T04:35:05.839Z,28.42
2022-11-06T04:37:39.254Z,29.00
2022-11-06T04:40:10.994Z,29.10
2022-11-06T04:42:54.730Z,27.98
2022-11-06T04:45:28.203Z,28.80
2022-11-06T04:47:56.106Z,30.52
2022-11-06T04:50:25.695Z,30.25
2022-11-06T04:52:53.766Z,32.83
2022-11-06T04:55:22.394Z,29.52
2022-11-06T04:57:49.885Z,32.03
2022-11-06T05:00:18.210Z,33.58
2022-11-06T05:02:45.765Z,37.33
2022-11-06T05:05:13.796Z,35.83
2022-11-06T05:07:41.313Z,35.38
2022-11-06T05:10:11.057Z,31.13
2022-11-06T05:12:38.647Z,32.58
2022-11-06T05:15:06.935Z,31.13
2022-11-06T05:17:36.678Z,29.98
2022-11-06T05:20:05.294Z,28.73
2022-11-06T05:22:51.430Z,28.33
2022-11-06T05:25:19.536Z,30.35
2022-11-06T05:27:47.119Z,31.55
2022-11-06T05:30:15.087Z,31.10
2022-11-06T05:32:42.590Z,32.92
2022-11-06T05:35:10.573Z,33.70
2022-11-06T05:37:38.198Z,29.67
2022-11-06T05:40:06.381Z,33.95
2022-11-06T05:42:33.897Z,34.75
2022-11-06T05:45:01.981Z,31.40
2022-11-06T05:47:29.818Z,36.42
2022-11-06T05:49:57.658Z,37.45
2022-11-06T05:52:25.288Z,36.42
2022-11-06T05:54:53.639Z,38.63
2022-11-06T05:57:21.197Z,36.47
2022-11-06T05:59:49.537Z,36.75
2022-11-06T06:02:17.162Z,34.38
2022-11-06T06:04:45.268Z,35.30
2022-11-06T06:07:12.791Z,33.33
2022-11-06T06:09:40.685Z,35.55
2022-11-06T06:12:09.575Z,36.78
2022-11-06T06:14:38.441Z,36.00
2022-11-06T06:17:06.114Z,36.75
2022-11-06T06:19:33.995Z,37.45
2022-11-06T06:22:01.582Z,33.05
2022-11-06T06:24:29.672Z,34.17
2022-11-06T06:26:57.562Z,37.75
2022-11-06T06:29:25.492Z,37.90
2022-11-06T06:31:53.641Z,33.15
2022-11-06T06:34:21.517Z,34.17
2022-11-06T06:36:52.694Z,35.55
2022-11-06T06:39:21.490Z,35.85
2022-11-06T06:41:49.442Z,35.55
2022-11-06T06:44:17.395Z,34.28
2022-11-06T06:46:44.890Z,32.95
2022-11-06T06:49:12.788Z,36.13
2022-11-06T06:51:40.400Z,36.30
2022-11-06T06:54:08.547Z,34.53
2022-11-06T06:56:36.707Z,35.80
2022-11-06T06:59:04.781Z,34.17
2022-11-06T07:01:32.366Z,36.13
2022-11-06T07:04:04.152Z,40.83
2022-11-06T07:06:32.182Z,43.28
2022-11-06T07:09:00.266Z,41.33
2022-11-06T07:11:27.797Z,48.88
2022-11-06T07:13:55.741Z,40.72
2022-11-06T07:16:23.501Z,43.30
2022-11-06T07:18:51.372Z,49.35
2022-11-06T07:21:18.951Z,58.30
2022-11-06T07:23:46.868Z,45.63
2022-11-06T07:26:14.436Z,46.30
2022-11-06T07:28:42.327Z,47.50
2022-11-06T07:31:12.732Z,49.75
2022-11-06T07:33:40.627Z,46.45
2022-11-06T07:36:12.060Z,48.63
2022-11-06T07:38:40.779Z,46.83
2022-11-06T07:41:09.624Z,46.42
2022-11-06T07:43:37.684Z,98.57
2022-11-06T07:46:06.383Z,105.18
2022-11-06T07:48:34.580Z,56.97
2022-11-06T07:51:06.669Z,105.45
2022-11-06T07:53:34.575Z,79.13
2022-11-06T07:56:02.813Z,58.35
2022-11-06T07:58:33.958Z,56.92
2022-11-06T08:01:02.402Z,54.58
2022-11-06T08:03:32.093Z,55.15
2022-11-06T08:06:00.092Z,58.08
2022-11-06T08:08:29.446Z,53.53
2022-11-06T08:11:02.179Z,56.40
2022-11-06T08:13:33.875Z,58.30
2022-11-06T08:16:15.231Z,53.10
2022-11-06T08:18:45.364Z,51.05
2022-11-06T08:21:13.007Z,45.90
2022-11-06T08:23:40.881Z,46.28
2022-11-06T08:26:08.530Z,46.97
2022-11-06T08:28:36.377Z,46.35
2022-11-06T08:31:05.485Z,45.92
2022-11-06T08:33:34.488Z,52.42
2022-11-06T08:36:05.533Z,54.03
2022-11-06T08:38:34.386Z,54.45
2022-11-06T08:41:05.946Z,51.90
2022-11-06T08:43:35.755Z,49.85
2022-11-06T08:46:03.513Z,50.33
2022-11-06T08:48:34.539Z,46.60
2022-11-06T08:51:02.527Z,45.22
2022-11-06T08:53:52.155Z,48.60
2022-11-06T08:56:19.763Z,45.80
2022-11-06T08:58:51.608Z,42.72
2022-11-06T09:01:24.128Z,41.70
2022-11-06T09:03:52.306Z,41.38
2022-11-06T09:06:19.869Z,41.85
2022-11-06T09:08:47.730Z,53.70
2022-11-06T09:11:15.277Z,56.15
2022-11-06T09:13:43.162Z,41.65
2022-11-06T09:16:15.626Z,40.85
2022-11-06T09:18:44.354Z,39.85
2022-11-06T09:21:11.869Z,42.17
2022-11-06T09:23:39.653Z,41.75
2022-11-06T09:26:07.194Z,37.92
2022-11-06T09:31:21.179Z,41.33
2022-11-06T09:33:49.189Z,37.20
2022-11-06T09:36:17.074Z,37.80
2022-11-06T09:38:45.982Z,38.88
2022-11-06T09:41:23.882Z,38.92
2022-11-06T09:44:05.521Z,40.00
2022-11-06T09:46:35.562Z,39.17
2022-11-06T09:49:12.506Z,40.88
2022-11-06T09:51:43.708Z,39.97
2022-11-06T09:54:33.553Z,39.55
2022-11-06T09:57:04.242Z,39.13
2022-11-06T09:59:34.094Z,40.85
2022-11-06T10:02:01.926Z,42.25
2022-11-06T10:04:36.367Z,41.05
2022-11-06T10:07:04.000Z,42.05
2022-11-06T10:09:32.235Z,39.92
2022-11-06T10:12:02.868Z,39.92
2022-11-06T10:14:36.176Z,38.85
2022-11-06T10:17:22.034Z,48.45
2022-11-06T10:19:50.690Z,58.35
2022-11-06T10:22:19.107Z,38.20
2022-11-06T10:25:01.107Z,36.92
2022-11-06T10:27:34.567Z,36.88
2022-11-06T10:30:20.906Z,38.15
2022-11-06T10:33:00.578Z,38.40
2022-11-06T10:35:37.957Z,39.15
2022-11-06T10:38:08.307Z,38.55
2022-11-06T10:40:37.322Z,53.90
2022-11-06T10:43:12.977Z,36.35
2022-11-06T10:45:42.467Z,157.90
2022-11-06T10:48:16.488Z,48.95
2022-11-06T10:50:49.441Z,51.95
2022-11-06T10:53:17.097Z,37.03
2022-11-06T10:55:44.943Z,46.78
2022-11-06T10:58:20.764Z,41.95
2022-11-06T11:00:50.391Z,36.65
2022-11-06T11:03:21.458Z,34.35
2022-11-06T11:05:49.526Z,42.85
2022-11-06T11:08:36.705Z,36.45
2022-11-06T11:11:07.900Z,40.15
2022-11-06T11:13:35.566Z,35.70
2022-11-06T11:16:03.942Z,39.17
2022-11-06T11:18:31.608Z,32.05
2022-11-06T11:21:17.527Z,31.05
2022-11-06T11:23:45.862Z,32.45
2022-11-06T11:26:24.639Z,31.73
2022-11-06T11:28:54.295Z,29.92
2022-11-06T11:31:28.248Z,31.33
2022-11-06T11:33:57.362Z,33.50
2022-11-06T11:36:25.227Z,44.42
2022-11-06T11:38:53.366Z,31.42
2022-11-06T11:41:21.215Z,30.13
2022-11-06T11:44:14.956Z,36.70
2022-11-06T11:46:48.706Z,39.58
2022-11-06T11:49:27.507Z,43.15
2022-11-06T11:51:55.633Z,32.92
2022-11-06T11:54:26.939Z,29.45
2022-11-06T11:57:07.516Z,29.17
2022-11-06T11:59:38.451Z,31.38
2022-11-06T12:02:23.633Z,33.08
2022-11-06T12:04:57.209Z,32.47
2022-11-06T12:07:28.659Z,33.90
2022-11-06T12:09:56.477Z,37.35
2022-11-06T12:12:31.330Z,37.85
2022-11-06T12:15:06.594Z,39.13
2022-11-06T12:17:36.694Z,39.10
2022-11-06T12:20:09.189Z,38.92
2022-11-06T12:22:40.279Z,35.95
2022-11-06T12:25:16.108Z,36.97
2022-11-06T12:27:48.470Z,35.83
2022-11-06T12:30:17.623Z,35.13
2022-11-06T12:32:48.427Z,33.03
2022-11-06T12:35:16.109Z,34.10
2022-11-06T12:37:59.209Z,35.20
2022-11-06T12:40:31.907Z,36.22
2022-11-06T12:43:15.627Z,36.97
2022-11-06T12:45:43.537Z,37.50
2022-11-06T12:48:14.922Z,40.63
2022-11-06T12:53:10.687Z,36.78
2022-11-06T12:55:43.628Z,37.97
2022-11-06T12:58:23.506Z,36.05
2022-11-06T13:01:09.101Z,37.97
2022-11-06T13:03:58.623Z,38.45
2022-11-06T13:06:32.287Z,35.53
2022-11-06T13:09:00.141Z,37.05
2022-11-06T13:11:47.909Z,91.82
2022-11-06T13:14:22.474Z,66.28
2022-11-06T13:17:06.631Z,44.97
2022-11-06T13:19:53.303Z,41.85
2022-11-06T13:22:21.617Z,56.55
2022-11-06T13:24:56.780Z,71.05
2022-11-06T13:27:42.872Z,63.90
2022-11-06T13:30:14.215Z,39.58
2022-11-06T13:32:42.839Z,38.97
2022-11-06T13:35:17.675Z,38.05
2022-11-06T13:37:47.055Z,40.03
2022-11-06T13:40:20.815Z,42.00
2022-11-06T13:42:54.354Z,47.72
2022-11-06T13:45:23.011Z,49.97
2022-11-06T13:47:53.836Z,45.53
2022-11-06T13:50:26.319Z,43.83
2022-11-06T13:52:55.492Z,51.92
2022-11-06T13:55:42.182Z,45.03
2022-11-06T13:58:09.847Z,42.65
2022-11-06T14:00:58.787Z,40.13
2022-11-06T14:03:26.447Z,41.22
2022-11-06T14:05:56.643Z,42.35
2022-11-06T14:08:27.478Z,43.53
2022-11-06T14:11:00.663Z,49.97
2022-11-06T14:13:30.062Z,52.92
2022-11-06T14:16:02.266Z,54.42
2022-11-06T14:18:30.139Z,47.78
2022-11-06T14:21:16.981Z,45.80
2022-11-06T14:23:44.528Z,46.05
2022-11-06T14:26:13.277Z,49.08
2022-11-06T14:28:42.495Z,51.47
2022-11-06T14:31:14.000Z,60.33
2022-11-06T14:33:45.879Z,64.28
2022-11-06T14:36:33.777Z,66.38
2022-11-06T14:39:03.758Z,62.08
2022-11-06T14:41:39.619Z,51.58
2022-11-06T14:44:22.293Z,46.22
2022-11-06T14:46:51.510Z,55.03
2022-11-06T14:49:31.718Z,32.30
2022-11-06T14:52:01.044Z,25.25
2022-11-06T14:54:29.000Z,23.70
2022-11-06T14:56:58.017Z,21.95
2022-11-06T14:59:31.943Z,21.42
2022-11-06T15:02:05.803Z,21.08
2022-11-06T15:04:35.613Z,21.83
2022-11-06T15:07:10.769Z,20.92
2022-11-06T15:09:38.410Z,21.38
2022-11-06T15:12:07.298Z,26.08
2022-11-06T15:14:35.995Z,21.45
2022-11-06T15:17:06.022Z,23.63
2022-11-06T15:19:35.854Z,24.88
2022-11-06T15:22:09.124Z,26.23
2022-11-06T15:24:39.267Z,35.25
2022-11-06T15:27:13.325Z,41.10
2022-11-06T15:29:42.482Z,34.72
2022-11-06T15:32:12.723Z,34.10
2022-11-06T15:34:42.324Z,26.90
2022-11-06T15:37:25.044Z,36.38
2022-11-06T15:39:59.191Z,39.90
2022-11-06T15:42:29.803Z,51.55
2022-11-06T15:45:08.753Z,44.95
2022-11-06T15:47:36.422Z,77.55
2022-11-06T15:50:07.129Z,99.53
2022-11-06T15:52:34.790Z,66.90
2022-11-06T15:55:06.399Z,41.78
2022-11-06T15:57:34.139Z,72.47
2022-11-06T16:00:10.323Z,115.65
2022-11-06T16:02:48.859Z,102.80
2022-11-06T16:05:17.837Z,91.55
2022-11-06T16:07:46.443Z,81.40
2022-11-06T16:10:18.446Z,53.10
2022-11-06T16:12:47.550Z,85.63
2022-11-06T16:15:35.677Z,56.83
2022-11-06T16:18:07.093Z,48.40
2022-11-06T16:20:35.028Z,45.50
2022-11-06T16:23:06.111Z,84.75
2022-11-06T16:25:34.046Z,88.50
2022-11-06T16:28:01.563Z,118.70
2022-11-06T16:30:33.531Z,112.43
2022-11-06T16:33:04.071Z,110.93
2022-11-06T16:35:33.380Z,123.65
2022-11-06T16:38:40.419Z,138.10
2022-11-06T16:41:09.566Z,127.97
2022-11-06T16:43:37.178Z,208.77
2022-11-06T16:46:10.156Z,164.70
2022-11-06T16:48:39.134Z,118.63
2022-11-06T16:51:07.089Z,164.32
2022-11-06T16:53:48.579Z,101.28
2022-11-06T16:56:16.495Z,125.72
2022-11-06T16:58:49.155Z,114.85
2022-11-06T17:01:20.681Z,95.68
2022-11-06T17:03:51.284Z,110.78
2022-11-06T17:06:23.905Z,160.57
2022-11-06T17:09:06.391Z,105.45
2022-11-06T17:11:37.114Z,127.20
2022-11-06T17:14:24.067Z,124.95
2022-11-06T17:16:59.306Z,152.23
2022-11-06T17:19:28.076Z,134.85
2022-11-06T17:21:56.421Z,141.75
2022-11-06T17:24:39.315Z,144.60
2022-11-06T17:27:07.446Z,161.05
2022-11-06T17:29:36.421Z,139.02
2022-11-06T17:32:04.822Z,127.20
2022-11-06T17:34:32.700Z,119.28
2022-11-06T17:37:00.536Z,106.47
2022-11-06T17:39:28.188Z,154.70
2022-11-06T17:41:56.105Z,145.65
2022-11-06T17:44:23.691Z,105.30
2022-11-06T17:46:51.650Z,107.78
2022-11-06T17:49:19.606Z,97.43
2022-11-06T17:51:53.629Z,95.03
2022-11-06T17:54:22.585Z,94.45
2022-11-06T17:56:51.438Z,88.47
2022-11-06T17:59:20.407Z,84.93
2022-11-06T18:01:50.443Z,87.25
2022-11-06T18:04:19.236Z,86.28
2022-11-06T18:06:48.095Z,100.28
2022-11-06T18:09:16.207Z,96.05
2022-11-06T18:11:44.470Z,91.82
2022-11-06T18:14:13.631Z,99.90
2022-11-06T18:16:43.885Z,93.90
2022-11-06T18:19:13.022Z,115.15
2022-11-06T18:21:40.898Z,124.00
2022-11-06T18:24:09.075Z,116.40
2022-11-06T18:26:40.064Z,117.70
2022-11-06T18:29:27.483Z,106.13
2022-11-06T18:31:55.311Z,97.70
2022-11-06T18:34:22.886Z,128.40
2022-11-06T18:36:50.953Z,131.77
2022-11-06T18:39:19.270Z,125.90
2022-11-06T18:41:47.330Z,128.45
2022-11-06T18:44:16.231Z,131.27
2022-11-06T18:46:44.745Z,122.57
2022-11-06T18:49:12.811Z,118.93
2022-11-06T18:51:40.706Z,114.53
2022-11-06T18:54:28.803Z,116.57
2022-11-06T18:56:58.726Z,117.93
2022-11-06T18:59:27.871Z,93.85
2022-11-06T19:01:55.784Z,78.28
2022-11-06T19:04:23.766Z,85.93
2022-11-06T19:06:51.837Z,87.13
2022-11-06T19:09:19.465Z,76.53
2022-11-06T19:11:48.991Z,80.57
2022-11-06T19:14:16.586Z,94.88
2022-11-06T19:16:44.483Z,81.03
2022-11-06T19:19:13.046Z,75.53
2022-11-06T19:21:46.078Z,69.90
2022-11-06T19:24:15.867Z,62.40
2022-11-06T19:26:43.812Z,71.57
2022-11-06T19:29:13.288Z,75.78
2022-11-06T19:31:41.818Z,70.63
2022-11-06T19:34:14.866Z,66.30
2022-11-06T19:36:43.014Z,60.67
2022-11-06T19:39:30.931Z,62.40
2022-11-06T19:42:00.984Z,56.08
2022-11-06T19:44:28.603Z,57.03
2022-11-06T19:46:56.569Z,58.67
2022-11-06T19:49:24.255Z,57.00
2022-11-06T19:51:52.238Z,79.30
2022-11-06T19:54:19.850Z,92.65
2022-11-06T19:57:27.504Z,91.32
2022-11-06T19:59:37.535Z,89.57
2022-11-06T20:02:05.490Z,99.63
2022-11-06T20:04:33.351Z,83.95
2022-11-06T20:07:01.404Z,82.50
2022-11-06T20:09:29.014Z,78.53
2022-11-06T20:11:56.884Z,69.80
2022-11-06T20:14:24.475Z,84.32
2022-11-06T20:16:52.348Z,78.72
2022-11-06T20:19:19.974Z,75.68
2022-11-06T20:21:47.850Z,76.07
2022-11-06T20:24:15.950Z,103.55
2022-11-06T20:26:44.197Z,80.63
2022-11-06T20:29:13.040Z,72.95
2022-11-06T20:31:43.456Z,76.30
2022-11-06T20:34:13.191Z,74.28
2022-11-06T20:36:42.780Z,73.88
2022-11-06T20:39:10.291Z,70.85
2022-11-06T20:41:40.324Z,64.90
2022-11-06T20:44:07.931Z,71.10
2022-11-06T20:46:35.905Z,67.40
2022-11-06T20:49:03.451Z,76.28
2022-11-06T20:51:42.893Z,82.05
2022-11-06T20:54:18.008Z,63.92
2022-11-06T20:56:48.394Z,49.50
2022-11-06T20:59:17.867Z,54.15
2022-11-06T21:01:45.901Z,46.15
2022-11-06T21:04:15.018Z,39.05
2022-11-06T21:06:44.718Z,39.45
2022-11-06T21:09:13.071Z,39.03
2022-11-06T21:11:41.006Z,39.88
2022-11-06T21:14:08.786Z,39.60
2022-11-06T21:16:37.642Z,54.63
2022-11-06T21:19:05.689Z,51.03
2022-11-06T21:21:34.465Z,51.47
2022-11-06T21:24:06.601Z,54.63
2022-11-06T21:26:36.661Z,41.25
2022-11-06T21:29:05.356Z,45.03
2022-11-06T21:31:33.707Z,57.17
2022-11-06T21:34:02.323Z,54.03
2022-11-06T21:36:35.104Z,54.45
2022-11-06T21:39:04.216Z,75.10
2022-11-06T21:41:34.431Z,64.00
2022-11-06T21:44:02.933Z,87.40
2022-11-06T21:46:31.626Z,78.60
2022-11-06T21:48:59.537Z,77.47
2022-11-06T21:51:32.110Z,35.28
2022-11-06T21:54:20.936Z,63.75
2022-11-06T21:56:49.700Z,49.78
2022-11-06T21:59:41.821Z,50.17
2022-11-06T22:02:10.236Z,29.98
2022-11-06T22:04:38.231Z,47.55
2022-11-06T22:07:06.150Z,38.85
2022-11-06T22:09:33.896Z,38.35
2022-11-06T22:12:01.732Z,38.40
2022-11-06T22:14:29.380Z,43.40
2022-11-06T22:16:57.229Z,46.65
2022-11-06T22:19:24.780Z,46.13
2022-11-06T22:21:54.917Z,36.83
2022-11-06T22:24:22.887Z,30.45
2022-11-06T22:26:50.805Z,30.25
2022-11-06T22:29:19.942Z,32.63
2022-11-06T22:31:49.579Z,35.65
2022-11-06T22:34:17.098Z,37.03
2022-11-06T22:36:46.676Z,47.25
2022-11-06T22:39:14.295Z,34.67
2022-11-06T22:41:42.205Z,31.40
2022-11-06T22:44:10.446Z,56.38
2022-11-06T22:46:38.434Z,57.88
2022-11-06T22:49:07.280Z,32.67
2022-11-06T22:51:35.312Z,35.17
2022-11-06T22:54:03.629Z,33.28
2022-11-06T22:56:32.281Z,38.05
2022-11-06T22:59:01.502Z,47.42
2022-11-06T23:01:30.635Z,49.70
2022-11-06T23:04:01.967Z,45.22
2022-11-06T23:06:30.716Z,38.95
2022-11-06T23:08:58.245Z,42.38
2022-11-06T23:11:26.738Z,48.53
2022-11-06T23:13:54.898Z,52.67
2022-11-06T23:16:53.499Z,54.55
2022-11-06T23:19:22.916Z,55.88
2022-11-06T23:22:12.432Z,51.53
2022-11-06T23:24:40.399Z,42.00
2022-11-06T23:27:07.913Z,30.85
2022-11-06T23:29:36.150Z,31.23
2022-11-06T23:32:03.749Z,47.30
2022-11-06T23:34:31.599Z,41.90
2022-11-06T23:36:59.132Z,36.28
2022-11-06T23:39:27.785Z,42.55
2022-11-06T23:41:55.372Z,36.35
2022-11-06T23:44:43.359Z,43.60
2022-11-06T23:47:11.038Z,53.20
2022-11-06T23:49:41.428Z,40.88
2022-11-06T23:52:09.119Z,43.67
2022-11-06T23:54:36.925Z,42.28
2022-11-06T23:57:04.738Z,39.25
2022-11-06T23:59:32.684Z,38.28
